Time;durP1;ratioP1;P1;durP2;ratioP2;P2;SDS_P1;SDS_P2;PMS_P1;PMS_P2;Temp;Humidity;BMP_temperature;BMP_pressure;BME280_temperature;BME280_humidity;BME280_pressure;Samples;Min_cycle;Max_cycle;Signal;HPM_P1;HPM_P2
2022/11/29 00:00:35;;;;;;;51.33;35.90;;;;;;;;;;5088763;28;20508;-86
2022/11/29 00:03:02;;;;;;;41.43;34.60;;;;;;;;;;5089127;28;20487;-85
2022/11/29 00:05:30;;;;;;;44.67;36.37;;;;;;;;;;5088710;28;20470;-85
2022/11/29 00:07:57;;;;;;;50.93;34.20;;;;;;;;;;5088650;28;20440;-86
2022/11/29 00:10:24;;;;;;;51.20;37.07;;;;;;;;;;5088803;28;20456;-86
2022/11/29 00:12:52;;;;;;;55.43;36.47;;;;;;;;;;5088477;28;20449;-85
2022/11/29 00:15:20;;;;;;;57.57;34.87;;;;;;;;;;5088415;28;20544;-86
2022/11/29 00:17:47;;;;;;;56.57;36.97;;;;;;;;;;5088275;28;20512;-85
2022/11/29 00:20:14;;;;;;;51.47;35.77;;;;;;;;;;5089782;28;20448;-85
2022/11/29 00:22:41;;;;;;;50.20;36.45;;;;;;;;;;5088282;28;20485;-85
2022/11/29 00:25:08;;;;;;;48.50;36.93;;;;;;;;;;5087844;28;20230;-86
2022/11/29 00:27:35;;;;;;;57.33;35.37;;;;;;;;;;5087553;28;20454;-85
2022/11/29 00:30:04;;;;;;;52.50;36.10;;;;;;;;;;5089221;28;20461;-85
2022/11/29 00:32:31;;;;;;;64.60;37.93;;;;;;;;;;5090298;28;20449;-86
2022/11/29 00:34:58;;;;;;;65.47;37.10;;;;;;;;;;5091634;28;20492;-85
2022/11/29 00:37:25;;;;;;;47.40;33.70;;;;;;;;;;5089355;28;20487;-85
2022/11/29 00:39:52;;;;;;;63.30;35.63;;;;;;;;;;5088440;28;20449;-84
2022/11/29 00:42:19;;;;;;;52.60;35.20;;;;;;;;;;5088307;28;20471;-85
2022/11/29 00:44:46;;;;;;;50.13;34.53;;;;;;;;;;5088427;28;20811;-86
2022/11/29 00:47:15;;;;;;;62.67;34.17;;;;;;;;;;5088204;28;20745;-85
2022/11/29 00:49:42;;;;;;;50.30;33.93;;;;;;;;;;5087503;28;20956;-85
2022/11/29 00:52:09;;;;;;;60.63;35.53;;;;;;;;;;5087469;28;20456;-86
2022/11/29 00:54:36;;;;;;;55.97;36.90;;;;;;;;;;5087899;28;20441;-86
2022/11/29 00:57:03;;;;;;;62.13;37.20;;;;;;;;;;5087714;28;20448;-85
2022/11/29 00:59:30;;;;;;;56.63;35.43;;;;;;;;;;5088215;28;20461;-85
2022/11/29 01:01:57;;;;;;;46.77;34.37;;;;;;;;;;5088022;28;20833;-85
2022/11/29 01:04:26;;;;;;;59.97;35.80;;;;;;;;;;5088399;28;20447;-84
2022/11/29 01:06:53;;;;;;;54.23;34.50;;;;;;;;;;5087359;28;20522;-85
2022/11/29 01:09:20;;;;;;;66.20;35.63;;;;;;;;;;5088456;28;20450;-85
2022/11/29 01:11:49;;;;;;;45.07;34.47;;;;;;;;;;5088570;28;20442;-85
2022/11/29 01:14:17;;;;;;;50.60;36.10;;;;;;;;;;5088882;28;20450;-85
2022/11/29 01:16:44;;;;;;;51.37;35.77;;;;;;;;;;5086848;28;20495;-86
2022/11/29 01:19:11;;;;;;;56.83;35.40;;;;;;;;;;5088417;28;20450;-85
2022/11/29 01:21:40;;;;;;;61.00;34.90;;;;;;;;;;5087443;28;20445;-85
2022/11/29 01:24:07;;;;;;;57.22;36.58;;;;;;;;;;5088052;28;20461;-85
2022/11/29 01:26:34;;;;;;;71.63;38.37;;;;;;;;;;5087274;28;20231;-85
2022/11/29 01:29:01;;;;;;;50.70;36.50;;;;;;;;;;5088131;28;20445;-85
2022/11/29 01:31:30;;;;;;;46.70;35.20;;;;;;;;;;5086304;28;20431;-86
2022/11/29 01:33:57;;;;;;;50.90;34.87;;;;;;;;;;5086880;28;20483;-85
2022/11/29 01:36:25;;;;;;;56.03;36.70;;;;;;;;;;5086926;28;20479;-85
2022/11/29 01:38:54;;;;;;;46.80;33.90;;;;;;;;;;5086368;28;20446;-85
2022/11/29 01:41:22;;;;;;;50.87;34.03;;;;;;;;;;5087108;28;20453;-86
2022/11/29 01:43:57;;;;;;;52.33;35.73;;;;;;;;;;5086440;28;20463;-86
2022/11/29 01:46:24;;;;;;;49.87;34.37;;;;;;;;;;5086730;28;20492;-86
2022/11/29 01:48:55;;;;;;;51.03;34.30;;;;;;;;;;5087326;28;20465;-85
2022/11/29 01:51:22;;;;;;;56.67;35.33;;;;;;;;;;5086906;28;20450;-85
2022/11/29 01:53:49;;;;;;;60.67;36.30;;;;;;;;;;5087173;28;20442;-85
2022/11/29 01:56:18;;;;;;;48.90;36.60;;;;;;;;;;5086879;28;20453;-85
2022/11/29 01:58:45;;;;;;;64.77;34.67;;;;;;;;;;5087783;28;20457;-85
2022/11/29 02:01:13;;;;;;;75.37;36.13;;;;;;;;;;5088202;28;20461;-85
2022/11/29 02:03:40;;;;;;;61.80;36.77;;;;;;;;;;5086318;28;20484;-85
2022/11/29 02:06:08;;;;;;;68.57;36.67;;;;;;;;;;5086856;28;20991;-86
2022/11/29 02:08:37;;;;;;;52.77;35.40;;;;;;;;;;5089878;28;20450;-85
2022/11/29 02:11:19;;;;;;;52.83;32.77;;;;;;;;;;5091689;28;20454;-85
2022/11/29 02:13:53;;;;;;;56.87;30.63;;;;;;;;;;5078657;28;20428;-85
2022/11/29 02:16:24;;;;;;;65.20;34.07;;;;;;;;;;5090459;28;20477;-85
2022/11/29 02:18:55;;;;;;;69.37;34.80;;;;;;;;;;5091070;28;20429;-85
2022/11/29 02:21:27;;;;;;;62.40;36.20;;;;;;;;;;5091582;28;20927;-85
2022/11/29 02:24:07;;;;;;;87.87;35.73;;;;;;;;;;5091102;28;20489;-86
2022/11/29 02:26:44;;;;;;;66.30;33.37;;;;;;;;;;5090471;28;20481;-85
2022/11/29 02:29:38;;;;;;;77.87;36.90;;;;;;;;;;5091558;28;20802;-85
2022/11/29 02:32:20;;;;;;;58.83;33.20;;;;;;;;;;5090679;28;20445;-85
2022/11/29 02:34:58;;;;;;;104.03;36.30;;;;;;;;;;5090702;28;20439;-85
2022/11/29 02:37:46;;;;;;;48.30;34.27;;;;;;;;;;5089917;28;20436;-85
2022/11/29 02:40:32;;;;;;;57.30;34.70;;;;;;;;;;5090622;28;20442;-85
2022/11/29 02:43:09;;;;;;;64.33;34.27;;;;;;;;;;5089980;28;21008;-85
2022/11/29 02:45:43;;;;;;;50.47;33.53;;;;;;;;;;5090705;28;20475;-85
2022/11/29 02:48:18;;;;;;;59.97;34.37;;;;;;;;;;5091363;28;20420;-85
2022/11/29 02:50:50;;;;;;;68.07;35.37;;;;;;;;;;5091102;28;20443;-85
2022/11/29 02:53:20;;;;;;;62.70;35.67;;;;;;;;;;5090380;28;20434;-84
2022/11/29 02:55:53;;;;;;;78.53;34.07;;;;;;;;;;5089455;28;20448;-86
2022/11/29 02:58:24;;;;;;;88.00;34.50;;;;;;;;;;5090861;28;20445;-85
2022/11/29 03:00:55;;;;;;;80.97;35.33;;;;;;;;;;5089862;28;20428;-86
2022/11/29 03:03:23;;;;;;;50.20;33.87;;;;;;;;;;5089762;28;20545;-85
2022/11/29 03:05:54;;;;;;;65.67;35.03;;;;;;;;;;5089153;28;20466;-85
2022/11/29 03:08:26;;;;;;;61.93;36.93;;;;;;;;;;5090496;28;20785;-85
2022/11/29 03:10:59;;;;;;;54.30;32.67;;;;;;;;;;5090187;28;20441;-85
2022/11/29 03:13:32;;;;;;;77.30;32.77;;;;;;;;;;5090090;28;20423;-86
2022/11/29 03:19:06;;;;;;;54.80;33.97;;;;;;;;;;5088252;28;20411;-86
2022/11/29 03:21:41;;;;;;;64.20;34.03;;;;;;;;;;5090010;28;20540;-85
2022/11/29 03:24:14;;;;;;;51.77;32.20;;;;;;;;;;5089019;28;20227;-85
2022/11/29 03:26:42;;;;;;;67.17;35.50;;;;;;;;;;5089413;28;20457;-85
2022/11/29 03:29:12;;;;;;;50.07;33.53;;;;;;;;;;5090242;28;20488;-85
2022/11/29 03:31:43;;;;;;;93.30;36.20;;;;;;;;;;5090239;28;20449;-86
2022/11/29 03:34:14;;;;;;;74.67;33.57;;;;;;;;;;5090615;28;20510;-85
2022/11/29 03:36:45;;;;;;;57.50;34.80;;;;;;;;;;5088375;28;20456;-85
2022/11/29 03:39:17;;;;;;;47.70;32.60;;;;;;;;;;5089640;28;20426;-85
2022/11/29 03:41:49;;;;;;;50.07;31.53;;;;;;;;;;5089234;28;20457;-85
2022/11/29 03:44:18;;;;;;;62.70;32.50;;;;;;;;;;5088777;28;20675;-85
2022/11/29 03:46:48;;;;;;;47.47;30.93;;;;;;;;;;5088633;28;20492;-85
2022/11/29 03:49:18;;;;;;;54.10;32.87;;;;;;;;;;5089695;28;20473;-85
2022/11/29 03:51:52;;;;;;;57.37;31.40;;;;;;;;;;5089076;28;20442;-86
2022/11/29 03:54:22;;;;;;;50.67;30.93;;;;;;;;;;5089858;28;20439;-84
2022/11/29 03:56:50;;;;;;;55.60;32.00;;;;;;;;;;5087619;28;20485;-84
2022/11/29 03:59:24;;;;;;;47.57;30.20;;;;;;;;;;5089233;28;20446;-85
2022/11/29 04:02:01;;;;;;;60.27;32.70;;;;;;;;;;5089064;28;20440;-85
2022/11/29 04:04:48;;;;;;;67.13;30.70;;;;;;;;;;5088357;28;20473;-86
2022/11/29 04:07:26;;;;;;;51.73;33.47;;;;;;;;;;5088465;28;20445;-86
2022/11/29 04:10:02;;;;;;;61.57;32.50;;;;;;;;;;5089147;28;20448;-85
2022/11/29 04:12:47;;;;;;;60.97;30.80;;;;;;;;;;5089328;28;20459;-86
2022/11/29 04:15:32;;;;;;;42.47;30.83;;;;;;;;;;5088224;28;20496;-85
2022/11/29 04:18:12;;;;;;;53.40;28.77;;;;;;;;;;5089009;28;20431;-85
2022/11/29 04:20:54;;;;;;;60.47;29.93;;;;;;;;;;5088005;28;20420;-85
2022/11/29 04:23:40;;;;;;;64.97;31.93;;;;;;;;;;5075634;28;20481;-85
2022/11/29 04:26:29;;;;;;;51.10;30.30;;;;;;;;;;5089280;28;20472;-85
2022/11/29 04:29:06;;;;;;;44.27;31.40;;;;;;;;;;5089046;28;20455;-85
2022/11/29 04:31:38;;;;;;;57.27;32.07;;;;;;;;;;5089024;28;20429;-84
2022/11/29 04:34:17;;;;;;;43.77;30.73;;;;;;;;;;5089394;28;20875;-85
2022/11/29 04:36:49;;;;;;;44.20;31.40;;;;;;;;;;5086938;28;20499;-85
2022/11/29 04:39:37;;;;;;;54.13;32.40;;;;;;;;;;5088734;28;20437;-85
2022/11/29 04:42:17;;;;;;;39.90;30.23;;;;;;;;;;5088481;28;20433;-85
2022/11/29 04:44:55;;;;;;;47.80;30.40;;;;;;;;;;5088008;28;20473;-85
2022/11/29 04:47:36;;;;;;;34.83;28.10;;;;;;;;;;5088406;28;20469;-85
2022/11/29 04:50:12;;;;;;;43.00;31.17;;;;;;;;;;5088632;28;20420;-84
2022/11/29 04:52:48;;;;;;;46.83;30.00;;;;;;;;;;5089715;28;20506;-85
2022/11/29 04:55:20;;;;;;;40.37;29.60;;;;;;;;;;5089925;28;20464;-85
2022/11/29 04:57:52;;;;;;;39.60;28.40;;;;;;;;;;5088482;28;20426;-85
2022/11/29 05:00:21;;;;;;;49.00;30.67;;;;;;;;;;5088666;28;20416;-85
2022/11/29 05:02:51;;;;;;;38.30;27.80;;;;;;;;;;5087970;28;20441;-85
2022/11/29 05:05:23;;;;;;;42.13;29.23;;;;;;;;;;5087886;28;20483;-85
2022/11/29 05:07:55;;;;;;;41.00;29.13;;;;;;;;;;5087161;28;20453;-85
2022/11/29 05:10:25;;;;;;;43.80;29.53;;;;;;;;;;5087779;28;20449;-85
2022/11/29 05:13:00;;;;;;;47.30;29.63;;;;;;;;;;5088156;28;20409;-85
2022/11/29 05:15:39;;;;;;;41.27;27.97;;;;;;;;;;5087928;28;20461;-86
2022/11/29 05:18:10;;;;;;;50.67;30.57;;;;;;;;;;5086800;28;20525;-85
2022/11/29 05:20:43;;;;;;;40.30;29.93;;;;;;;;;;5088489;28;20460;-84
2022/11/29 05:23:21;;;;;;;45.30;29.47;;;;;;;;;;5087039;28;20451;-85
2022/11/29 05:25:51;;;;;;;50.17;29.20;;;;;;;;;;5087916;28;20462;-85
2022/11/29 05:28:22;;;;;;;45.33;31.97;;;;;;;;;;5088639;28;20453;-85
2022/11/29 05:31:01;;;;;;;38.57;28.63;;;;;;;;;;5088731;28;20420;-85
2022/11/29 05:33:35;;;;;;;50.63;30.37;;;;;;;;;;5087846;28;20416;-85
2022/11/29 05:36:07;;;;;;;35.63;29.73;;;;;;;;;;5087199;28;20474;-85
2022/11/29 05:38:49;;;;;;;38.13;29.13;;;;;;;;;;5087511;28;20231;-85
2022/11/29 05:41:22;;;;;;;35.27;28.10;;;;;;;;;;5085354;28;20428;-85
2022/11/29 05:43:56;;;;;;;38.10;30.43;;;;;;;;;;5090736;28;20487;-85
2022/11/29 05:46:27;;;;;;;42.77;29.63;;;;;;;;;;5091558;28;20851;-85
2022/11/29 05:48:59;;;;;;;38.53;28.80;;;;;;;;;;5091531;28;20458;-84
2022/11/29 05:51:33;;;;;;;43.37;30.37;;;;;;;;;;5092106;28;20404;-85
2022/11/29 05:54:05;;;;;;;38.23;30.93;;;;;;;;;;5091723;28;20407;-85
2022/11/29 05:56:40;;;;;;;34.57;29.80;;;;;;;;;;5091692;28;20465;-85
2022/11/29 05:59:11;;;;;;;37.17;29.98;;;;;;;;;;5092125;28;20431;-85
2022/11/29 06:01:44;;;;;;;37.27;29.43;;;;;;;;;;5091309;28;20210;-85
2022/11/29 06:04:13;;;;;;;37.20;30.27;;;;;;;;;;5091334;28;20470;-85
2022/11/29 06:06:43;;;;;;;36.47;29.50;;;;;;;;;;5090490;28;20449;-84
2022/11/29 06:09:15;;;;;;;37.90;30.70;;;;;;;;;;5091153;28;20445;-85
2022/11/29 06:11:44;;;;;;;44.60;30.57;;;;;;;;;;5090770;28;20459;-86
2022/11/29 06:14:17;;;;;;;33.30;29.73;;;;;;;;;;5091055;28;20441;-86
2022/11/29 06:17:03;;;;;;;43.00;29.50;;;;;;;;;;5090150;28;20828;-85
2022/11/29 06:19:36;;;;;;;36.70;29.43;;;;;;;;;;5091367;28;20460;-85
2022/11/29 06:22:10;;;;;;;39.63;30.63;;;;;;;;;;5090576;28;20432;-86
2022/11/29 06:24:41;;;;;;;45.50;32.57;;;;;;;;;;5089876;28;20472;-85
2022/11/29 06:27:20;;;;;;;50.27;32.10;;;;;;;;;;5090393;28;20472;-85
2022/11/29 06:29:53;;;;;;;37.57;28.93;;;;;;;;;;5091482;28;20444;-85
2022/11/29 06:32:25;;;;;;;45.00;30.70;;;;;;;;;;5090019;28;20444;-85
2022/11/29 06:34:54;;;;;;;32.50;28.90;;;;;;;;;;5090368;28;20943;-84
2022/11/29 06:37:23;;;;;;;43.47;30.90;;;;;;;;;;5090889;28;20449;-84
2022/11/29 06:39:51;;;;;;;39.80;32.23;;;;;;;;;;5089611;28;20465;-86
2022/11/29 06:42:18;;;;;;;39.90;32.40;;;;;;;;;;5089978;28;20446;-86
2022/11/29 06:44:45;;;;;;;38.53;30.00;;;;;;;;;;5090388;28;20455;-85
2022/11/29 06:47:19;;;;;;;39.47;30.57;;;;;;;;;;5090378;28;20450;-86
2022/11/29 06:49:48;;;;;;;37.90;30.30;;;;;;;;;;5090785;28;20456;-85
2022/11/29 06:52:21;;;;;;;44.10;32.90;;;;;;;;;;5090009;28;20412;-85
2022/11/29 06:54:53;;;;;;;37.73;29.90;;;;;;;;;;5089315;28;20445;-86
2022/11/29 06:57:23;;;;;;;38.10;28.02;;;;;;;;;;5089865;28;20511;-85
2022/11/29 06:59:56;;;;;;;35.50;30.07;;;;;;;;;;5090173;28;20184;-85
2022/11/29 07:02:32;;;;;;;34.47;30.50;;;;;;;;;;5089603;28;20423;-85
2022/11/29 07:05:04;;;;;;;42.63;31.43;;;;;;;;;;5089546;28;20470;-85
2022/11/29 07:07:33;;;;;;;34.50;30.63;;;;;;;;;;5088404;28;20528;-86
2022/11/29 07:10:02;;;;;;;40.37;31.63;;;;;;;;;;5087740;28;20479;-86
2022/11/29 07:12:30;;;;;;;34.90;30.87;;;;;;;;;;5086583;28;20462;-87
2022/11/29 07:14:58;;;;;;;36.30;29.13;;;;;;;;;;5081470;28;20447;-87
2022/11/29 07:17:28;;;;;;;30.60;27.30;;;;;;;;;;5085811;28;20452;-85
2022/11/29 07:20:00;;;;;;;35.03;29.50;;;;;;;;;;5089543;28;20457;-85
2022/11/29 07:22:43;;;;;;;36.73;29.80;;;;;;;;;;5087500;28;20482;-82
2022/11/29 07:25:14;;;;;;;34.57;29.37;;;;;;;;;;5086703;28;20480;-83
2022/11/29 07:27:44;;;;;;;34.10;29.70;;;;;;;;;;5086681;28;20422;-82
2022/11/29 07:30:14;;;;;;;31.90;28.50;;;;;;;;;;5086991;28;20450;-83
2022/11/29 07:32:47;;;;;;;35.23;31.43;;;;;;;;;;5086286;28;20457;-82
2022/11/29 07:35:18;;;;;;;35.37;31.07;;;;;;;;;;5086554;28;20468;-82
2022/11/29 07:37:51;;;;;;;34.63;29.20;;;;;;;;;;5085783;28;20476;-82
2022/11/29 07:40:20;;;;;;;34.47;30.57;;;;;;;;;;5086871;28;20449;-82
2022/11/29 07:42:55;;;;;;;34.30;30.77;;;;;;;;;;5085858;28;20442;-83
2022/11/29 07:45:26;;;;;;;33.20;29.87;;;;;;;;;;5092569;28;20480;-84
2022/11/29 07:47:53;;;;;;;33.33;29.87;;;;;;;;;;5105475;28;20451;-82
2022/11/29 07:50:22;;;;;;;33.77;29.30;;;;;;;;;;5105735;28;20815;-82
2022/11/29 07:52:49;;;;;;;34.50;30.07;;;;;;;;;;5104948;28;20461;-82
2022/11/29 07:55:17;;;;;;;37.40;29.93;;;;;;;;;;5105803;28;20818;-82
2022/11/29 07:57:44;;;;;;;36.17;30.90;;;;;;;;;;5105922;28;20495;-83
2022/11/29 08:00:12;;;;;;;38.80;31.13;;;;;;;;;;5105800;28;20438;-82
2022/11/29 08:02:40;;;;;;;37.07;32.20;;;;;;;;;;5105357;28;20459;-83
2022/11/29 08:05:08;;;;;;;34.30;30.70;;;;;;;;;;5105798;28;20488;-83
2022/11/29 08:07:37;;;;;;;34.43;30.87;;;;;;;;;;5106131;28;20447;-82
2022/11/29 08:10:04;;;;;;;32.47;29.03;;;;;;;;;;5105454;28;20473;-83
2022/11/29 08:12:32;;;;;;;33.53;29.83;;;;;;;;;;5106143;28;20784;-82
2022/11/29 08:14:59;;;;;;;33.67;30.10;;;;;;;;;;5106067;28;20469;-83
2022/11/29 08:17:26;;;;;;;32.07;28.30;;;;;;;;;;5106207;28;20428;-83
2022/11/29 08:19:54;;;;;;;34.10;30.50;;;;;;;;;;5106368;28;20535;-83
2022/11/29 08:22:21;;;;;;;32.77;29.27;;;;;;;;;;5105055;28;20452;-84
2022/11/29 08:24:50;;;;;;;34.57;30.73;;;;;;;;;;5105191;28;20995;-83
2022/11/29 08:27:17;;;;;;;41.40;32.10;;;;;;;;;;5105421;28;20443;-83
2022/11/29 08:29:45;;;;;;;35.27;30.23;;;;;;;;;;5105180;28;20460;-82
2022/11/29 08:34:48;;;;;;;36.90;28.60;;;;;;;;;;5431419;22;20462;-86
2022/11/29 08:37:15;;;;;;;38.17;30.60;;;;;;;;;;5100771;28;20442;-84
2022/11/29 08:39:42;;;;;;;38.23;31.83;;;;;;;;;;5101234;28;20437;-85
2022/11/29 08:42:10;;;;;;;41.17;31.50;;;;;;;;;;5101803;28;20430;-80
2022/11/29 08:44:38;;;;;;;37.90;31.10;;;;;;;;;;5100309;28;20490;-80
2022/11/29 08:50:01;;;;;;;41.10;31.70;;;;;;;;;;5102378;28;20427;-79
2022/11/29 08:55:13;;;;;;;39.50;32.20;;;;;;;;;;5099780;28;20447;-80
2022/11/29 08:57:42;;;;;;;39.23;29.87;;;;;;;;;;5100575;28;20440;-80
2022/11/29 09:00:09;;;;;;;44.20;31.00;;;;;;;;;;5100310;28;20426;-78
2022/11/29 09:02:37;;;;;;;52.03;34.00;;;;;;;;;;5101390;28;20455;-79
2022/11/29 09:05:04;;;;;;;40.47;33.37;;;;;;;;;;5102826;28;20546;-79
2022/11/29 09:07:31;;;;;;;42.63;32.50;;;;;;;;;;5103206;28;20416;-79
2022/11/29 09:09:59;;;;;;;45.90;32.10;;;;;;;;;;5103377;28;20451;-79
2022/11/29 09:12:26;;;;;;;38.77;31.13;;;;;;;;;;5104005;28;20419;-79
2022/11/29 09:14:55;;;;;;;43.40;30.50;;;;;;;;;;5102530;28;20421;-79
2022/11/29 09:17:22;;;;;;;38.87;31.43;;;;;;;;;;5102425;28;20439;-80
2022/11/29 09:19:49;;;;;;;48.87;31.47;;;;;;;;;;5103729;28;20961;-80
2022/11/29 09:22:16;;;;;;;43.27;29.93;;;;;;;;;;5102991;28;20452;-79
2022/11/29 09:24:45;;;;;;;40.87;30.03;;;;;;;;;;5101816;28;20461;-79
2022/11/29 09:27:12;;;;;;;43.90;31.30;;;;;;;;;;5103109;28;20459;-80
2022/11/29 09:29:39;;;;;;;41.43;29.67;;;;;;;;;;5103422;28;20455;-79
2022/11/29 09:32:07;;;;;;;60.07;33.67;;;;;;;;;;5103151;28;20952;-80
2022/11/29 09:34:34;;;;;;;55.33;33.33;;;;;;;;;;5102273;28;20458;-79
2022/11/29 09:37:01;;;;;;;44.00;31.40;;;;;;;;;;5102311;28;20833;-79
2022/11/29 09:39:28;;;;;;;61.73;31.63;;;;;;;;;;5103011;28;20450;-79
2022/11/29 09:42:01;;;;;;;54.53;31.60;;;;;;;;;;5102453;28;20421;-80
2022/11/29 09:44:35;;;;;;;57.80;35.67;;;;;;;;;;5102767;28;20472;-79
2022/11/29 09:47:05;;;;;;;48.63;31.50;;;;;;;;;;5102757;28;20476;-79
2022/11/29 09:49:40;;;;;;;56.90;31.83;;;;;;;;;;5103083;28;20445;-79
2022/11/29 09:52:12;;;;;;;50.37;31.40;;;;;;;;;;5103573;28;20433;-79
2022/11/29 09:54:43;;;;;;;51.93;32.17;;;;;;;;;;5102543;28;20436;-79
2022/11/29 09:57:12;;;;;;;52.63;31.00;;;;;;;;;;5102486;28;20477;-78
2022/11/29 09:59:41;;;;;;;56.20;32.33;;;;;;;;;;5103385;28;20450;-79
2022/11/29 10:02:15;;;;;;;53.80;32.67;;;;;;;;;;5102199;28;20520;-79
2022/11/29 10:04:45;;;;;;;57.60;30.30;;;;;;;;;;5102855;28;20467;-79
2022/11/29 10:07:17;;;;;;;42.57;31.33;;;;;;;;;;5102745;28;20934;-78
2022/11/29 10:09:46;;;;;;;49.47;30.70;;;;;;;;;;5103044;28;20436;-79
2022/11/29 10:12:15;;;;;;;49.30;32.93;;;;;;;;;;5102668;28;20434;-78
2022/11/29 10:14:44;;;;;;;43.50;31.50;;;;;;;;;;5101884;28;20415;-79
2022/11/29 10:17:14;;;;;;;46.23;33.40;;;;;;;;;;5103208;28;20469;-79
2022/11/29 10:19:44;;;;;;;55.60;36.80;;;;;;;;;;5103154;28;20910;-79
2022/11/29 10:22:16;;;;;;;41.47;35.20;;;;;;;;;;5102490;28;20447;-79
2022/11/29 10:24:45;;;;;;;44.57;34.43;;;;;;;;;;5102489;28;20476;-79
2022/11/29 10:27:15;;;;;;;42.40;33.58;;;;;;;;;;5102379;28;20427;-78
2022/11/29 10:29:42;;;;;;;43.63;33.23;;;;;;;;;;5106126;28;20206;-79
2022/11/29 10:32:13;;;;;;;46.30;34.17;;;;;;;;;;5106384;28;20431;-79
2022/11/29 10:34:41;;;;;;;46.83;35.13;;;;;;;;;;5105279;28;20812;-79
2022/11/29 10:37:11;;;;;;;36.23;32.10;;;;;;;;;;5105807;28;21009;-79
2022/11/29 10:39:43;;;;;;;47.93;34.43;;;;;;;;;;5106506;28;20927;-79
2022/11/29 10:42:47;;;;;;;40.50;35.17;;;;;;;;;;5106572;28;20420;-79
2022/11/29 10:45:00;;;;;;;59.70;36.50;;;;;;;;;;5105798;28;20484;-79
2022/11/29 10:47:27;;;;;;;53.37;34.70;;;;;;;;;;5105940;28;20426;-79
2022/11/29 10:49:55;;;;;;;42.53;32.87;;;;;;;;;;5106441;28;20451;-78
2022/11/29 10:52:24;;;;;;;45.37;34.73;;;;;;;;;;5105938;28;21014;-79
2022/11/29 10:54:54;;;;;;;40.60;32.30;;;;;;;;;;5105114;28;20444;-79
2022/11/29 10:57:22;;;;;;;46.37;34.47;;;;;;;;;;5105718;28;20399;-78
2022/11/29 10:59:59;;;;;;;58.80;35.23;;;;;;;;;;5105963;28;20464;-79
2022/11/29 11:02:26;;;;;;;47.50;34.60;;;;;;;;;;5106348;28;20486;-79
2022/11/29 11:04:54;;;;;;;42.83;34.40;;;;;;;;;;5104946;28;20484;-79
2022/11/29 11:07:27;;;;;;;43.07;32.87;;;;;;;;;;5106231;28;20438;-79
2022/11/29 11:09:56;;;;;;;41.20;33.50;;;;;;;;;;5105551;28;20463;-79
2022/11/29 11:12:26;;;;;;;42.90;33.63;;;;;;;;;;5105396;28;20505;-79
2022/11/29 11:15:12;;;;;;;40.80;34.20;;;;;;;;;;5104731;28;20419;-79
2022/11/29 11:17:41;;;;;;;39.60;33.00;;;;;;;;;;5108168;28;20449;-79
2022/11/29 11:20:19;;;;;;;40.83;33.20;;;;;;;;;;5109142;28;20940;-79
2022/11/29 11:22:57;;;;;;;41.33;32.70;;;;;;;;;;5109782;28;20464;-79
2022/11/29 11:25:26;;;;;;;43.40;34.77;;;;;;;;;;5104102;28;20502;-79
2022/11/29 11:27:54;;;;;;;43.43;33.37;;;;;;;;;;5106036;28;20447;-79
2022/11/29 11:30:22;;;;;;;45.33;36.07;;;;;;;;;;5105623;28;20442;-79
2022/11/29 11:33:04;;;;;;;44.93;35.50;;;;;;;;;;5105685;28;20448;-79
2022/11/29 11:35:31;;;;;;;41.87;34.70;;;;;;;;;;5105007;28;20457;-79
2022/11/29 11:37:59;;;;;;;46.87;34.40;;;;;;;;;;5105275;28;20452;-79
2022/11/29 11:40:28;;;;;;;38.90;34.67;;;;;;;;;;5105181;28;20868;-79
2022/11/29 11:42:57;;;;;;;35.10;31.27;;;;;;;;;;5104909;28;20447;-80
2022/11/29 11:45:27;;;;;;;44.63;34.57;;;;;;;;;;5105121;28;20493;-79
2022/11/29 11:47:55;;;;;;;40.67;33.97;;;;;;;;;;5105038;28;20429;-79
2022/11/29 11:50:27;;;;;;;36.70;32.63;;;;;;;;;;5104238;28;20415;-79
2022/11/29 11:52:56;;;;;;;37.37;31.73;;;;;;;;;;5105297;28;20490;-80
2022/11/29 11:55:28;;;;;;;41.30;34.13;;;;;;;;;;5104416;28;20435;-78
2022/11/29 11:57:59;;;;;;;41.30;35.07;;;;;;;;;;5104336;28;20415;-79
2022/11/29 12:00:39;;;;;;;38.97;32.43;;;;;;;;;;5104288;28;20448;-79
2022/11/29 12:03:07;;;;;;;42.33;34.93;;;;;;;;;;5104423;28;20455;-80
2022/11/29 12:05:34;;;;;;;38.23;31.53;;;;;;;;;;5104441;28;20506;-79
2022/11/29 12:08:03;;;;;;;40.90;33.40;;;;;;;;;;5104220;28;20448;-79
2022/11/29 12:10:33;;;;;;;36.00;32.33;;;;;;;;;;5105165;28;20515;-79
2022/11/29 12:13:01;;;;;;;46.13;33.80;;;;;;;;;;5103588;28;20935;-79
2022/11/29 12:15:30;;;;;;;40.57;34.40;;;;;;;;;;5103816;28;20431;-79
2022/11/29 12:18:02;;;;;;;41.97;34.60;;;;;;;;;;5104216;28;20930;-79
2022/11/29 12:20:31;;;;;;;36.43;32.53;;;;;;;;;;5104127;28;20424;-79
2022/11/29 12:23:05;;;;;;;43.80;33.17;;;;;;;;;;5104164;28;20442;-79
2022/11/29 12:25:36;;;;;;;43.00;32.73;;;;;;;;;;5104508;28;20481;-79
2022/11/29 12:28:04;;;;;;;44.10;33.97;;;;;;;;;;5104010;28;20451;-79
2022/11/29 12:30:32;;;;;;;47.23;32.60;;;;;;;;;;5103585;28;20452;-79
2022/11/29 12:33:13;;;;;;;38.80;32.10;;;;;;;;;;5103873;28;20447;-80
2022/11/29 12:35:47;;;;;;;47.03;34.67;;;;;;;;;;5103910;28;20538;-79
2022/11/29 12:38:24;;;;;;;41.83;34.33;;;;;;;;;;5103942;28;20439;-79
2022/11/29 12:40:59;;;;;;;44.87;33.17;;;;;;;;;;5103863;28;20391;-79
2022/11/29 12:43:30;;;;;;;41.43;32.70;;;;;;;;;;5102631;28;20931;-78
2022/11/29 12:46:00;;;;;;;40.63;34.07;;;;;;;;;;5103844;28;20465;-79
2022/11/29 12:48:33;;;;;;;47.47;34.60;;;;;;;;;;5103715;28;20455;-79
2022/11/29 12:51:04;;;;;;;45.57;32.73;;;;;;;;;;5103457;28;20452;-79
2022/11/29 12:53:37;;;;;;;45.53;32.20;;;;;;;;;;5103578;28;20413;-80
2022/11/29 12:56:12;;;;;;;49.20;31.37;;;;;;;;;;5102987;28;20471;-79
2022/11/29 12:58:43;;;;;;;51.33;33.20;;;;;;;;;;5104471;28;20422;-79
2022/11/29 13:01:13;;;;;;;55.07;34.20;;;;;;;;;;5104114;28;20446;-79
2022/11/29 13:03:45;;;;;;;51.10;32.40;;;;;;;;;;5102895;28;20428;-79
2022/11/29 13:06:16;;;;;;;58.97;36.37;;;;;;;;;;5103506;28;20451;-79
2022/11/29 13:08:54;;;;;;;49.53;34.70;;;;;;;;;;5102209;28;20439;-81
2022/11/29 13:11:24;;;;;;;53.63;33.93;;;;;;;;;;5103032;28;20448;-79
2022/11/29 13:13:56;;;;;;;58.73;35.17;;;;;;;;;;5102369;28;20423;-79
2022/11/29 13:16:31;;;;;;;64.73;35.47;;;;;;;;;;5102943;28;20467;-79
2022/11/29 13:19:00;;;;;;;52.43;34.93;;;;;;;;;;5103206;28;20522;-80
2022/11/29 13:21:32;;;;;;;58.67;34.47;;;;;;;;;;5102835;28;20970;-80
2022/11/29 13:24:05;;;;;;;69.90;38.30;;;;;;;;;;5098821;28;20452;-80
2022/11/29 13:26:34;;;;;;;55.90;37.13;;;;;;;;;;5101326;28;20480;-80
2022/11/29 13:29:02;;;;;;;64.77;36.90;;;;;;;;;;5097829;28;20433;-79
2022/11/29 13:31:29;;;;;;;50.67;35.43;;;;;;;;;;5104222;28;20457;-80
2022/11/29 13:33:59;;;;;;;63.83;35.37;;;;;;;;;;5103197;28;20445;-80
2022/11/29 13:36:32;;;;;;;59.07;36.50;;;;;;;;;;5103559;28;20865;-80
2022/11/29 13:39:03;;;;;;;63.53;38.57;;;;;;;;;;5103432;28;20432;-79
2022/11/29 13:41:31;;;;;;;67.57;38.70;;;;;;;;;;5103327;28;20403;-79
2022/11/29 13:44:06;;;;;;;51.87;36.50;;;;;;;;;;5102515;28;20458;-80
2022/11/29 13:46:37;;;;;;;48.53;34.33;;;;;;;;;;5102780;28;20971;-79
2022/11/29 13:49:04;;;;;;;40.30;33.73;;;;;;;;;;5103840;28;20406;-80
2022/11/29 13:51:33;;;;;;;48.37;36.13;;;;;;;;;;5103677;28;20427;-80
2022/11/29 13:54:01;;;;;;;49.10;35.70;;;;;;;;;;5103131;28;20430;-80
2022/11/29 13:56:31;;;;;;;45.07;34.20;;;;;;;;;;5103060;28;20472;-80
2022/11/29 13:59:00;;;;;;;49.50;35.40;;;;;;;;;;5102973;28;20431;-81
2022/11/29 14:01:28;;;;;;;40.80;34.40;;;;;;;;;;5103645;28;20918;-80
2022/11/29 14:04:02;;;;;;;38.93;31.50;;;;;;;;;;5104999;28;21061;-80
2022/11/29 14:06:33;;;;;;;48.87;36.37;;;;;;;;;;5107200;28;20462;-80
2022/11/29 14:09:18;;;;;;;42.27;33.23;;;;;;;;;;5107326;28;20423;-80
2022/11/29 14:11:48;;;;;;;45.97;33.60;;;;;;;;;;5106655;28;20459;-80
2022/11/29 14:14:22;;;;;;;57.40;34.73;;;;;;;;;;5106323;28;20430;-80
2022/11/29 14:16:50;;;;;;;45.00;34.60;;;;;;;;;;5106572;28;20467;-80
2022/11/29 14:19:22;;;;;;;45.10;34.40;;;;;;;;;;5106776;28;20415;-81
2022/11/29 14:22:08;;;;;;;48.13;32.57;;;;;;;;;;5106740;28;20449;-81
2022/11/29 14:24:42;;;;;;;39.20;33.77;;;;;;;;;;5106148;28;20438;-80
2022/11/29 14:27:27;;;;;;;45.67;35.70;;;;;;;;;;5106857;28;20462;-80
2022/11/29 14:29:57;;;;;;;51.83;36.47;;;;;;;;;;5106872;28;20478;-81
2022/11/29 14:32:25;;;;;;;47.10;35.40;;;;;;;;;;5106658;28;20471;-81
2022/11/29 14:34:55;;;;;;;52.60;34.17;;;;;;;;;;5106629;28;20922;-80
2022/11/29 14:37:36;;;;;;;48.77;35.07;;;;;;;;;;5107241;28;20452;-80
2022/11/29 14:40:12;;;;;;;47.60;35.53;;;;;;;;;;5107090;28;20444;-80
2022/11/29 14:42:45;;;;;;;44.10;34.13;;;;;;;;;;5107063;28;20476;-80
2022/11/29 14:45:23;;;;;;;43.63;33.23;;;;;;;;;;5106992;28;20442;-81
2022/11/29 14:47:50;;;;;;;47.77;34.37;;;;;;;;;;5106737;28;20449;-80
2022/11/29 14:50:27;;;;;;;43.40;33.60;;;;;;;;;;5106741;28;20445;-81